createdAt,value
2017-08-27T00:01:08.542Z,95.41
2017-08-27T00:02:18.812Z,95.32
2017-08-27T00:03:29.075Z,95.12
2017-08-27T00:04:39.025Z,95.7
2017-08-27T00:05:48.973Z,95.89
2017-08-27T00:06:59.239Z,96.26
2017-08-27T00:08:09.185Z,95.79
2017-08-27T00:09:19.137Z,95.75
2017-08-27T00:10:29.400Z,95.65
2017-08-27T00:11:39.667Z,96.22
2017-08-27T00:12:49.933Z,96.08
2017-08-27T00:14:00.205Z,96.22
2017-08-27T00:15:10.470Z,96.6
2017-08-27T00:16:20.733Z,96.5
2017-08-27T00:17:31.003Z,97.55
2017-08-27T00:18:41.289Z,97.17
2017-08-27T00:19:51.232Z,97.64
2017-08-27T00:21:00.854Z,97.74
2017-08-27T00:22:10.477Z,98.12
2017-08-27T00:23:22.942Z,99.73
2017-08-27T00:24:32.888Z,99.73
2017-08-27T00:25:42.830Z,99.99
2017-08-27T00:26:53.093Z,99.92
2017-08-27T00:28:02.715Z,99.99
2017-08-27T00:29:13.001Z,99.35
2017-08-27T00:30:22.943Z,98.88
2017-08-27T00:31:33.209Z,98.88
2017-08-27T00:32:42.185Z,99.16
2017-08-27T00:33:52.459Z,99.92
2017-08-27T00:35:02.729Z,99.92
2017-08-27T00:36:12.995Z,99.99
2017-08-27T00:37:22.940Z,99.99
2017-08-27T00:38:32.883Z,99.54
2017-08-27T00:39:43.155Z,99.92
2017-08-27T00:40:53.417Z,99.83
2017-08-27T00:42:03.679Z,99.99
2017-08-27T00:43:13.312Z,99.99
2017-08-27T00:44:22.934Z,99.99
2017-08-27T00:45:32.878Z,99.99
2017-08-27T00:46:43.138Z,99.99
2017-08-27T00:47:53.085Z,99.99
2017-08-27T00:49:03.350Z,99.99
2017-08-27T00:50:13.625Z,99.99
2017-08-27T00:51:23.567Z,99.99
2017-08-27T00:52:33.512Z,99.99
2017-08-27T00:53:43.775Z,99.99
2017-08-27T00:54:54.040Z,99.99
2017-08-27T00:56:03.660Z,99.99
2017-08-27T00:57:13.928Z,99.99
2017-08-27T00:58:24.192Z,99.99
2017-08-27T00:59:34.135Z,99.99
2017-08-27T01:00:44.397Z,99.99
2017-08-27T01:01:54.658Z,99.99
2017-08-27T01:03:04.944Z,99.99
2017-08-27T01:04:15.212Z,99.99
2017-08-27T01:05:25.154Z,99.99
2017-08-27T01:06:35.097Z,99.99
2017-08-27T01:07:45.362Z,99.99
2017-08-27T01:08:55.307Z,99.99
2017-08-27T01:10:05.571Z,99.99
2017-08-27T01:11:15.833Z,99.99
2017-08-27T01:12:26.106Z,99.99
2017-08-27T01:13:36.370Z,99.99
2017-08-27T01:14:46.639Z,99.99
2017-08-27T01:15:56.901Z,99.99
2017-08-27T01:17:07.164Z,99.99
2017-08-27T01:18:17.428Z,99.99
2017-08-27T01:19:27.374Z,99.99
2017-08-27T01:20:37.327Z,99.99
2017-08-27T01:21:47.592Z,99.99
2017-08-27T01:22:57.854Z,99.99
2017-08-27T01:24:08.123Z,99.99
2017-08-27T01:25:18.385Z,99.99
2017-08-27T01:26:28.662Z,99.99
2017-08-27T01:27:38.923Z,99.99
2017-08-27T01:28:48.864Z,99.99
2017-08-27T01:29:58.805Z,99.99
2017-08-27T01:31:09.079Z,99.99
2017-08-27T01:32:19.021Z,99.99
2017-08-27T01:33:28.962Z,99.99
2017-08-27T01:34:38.590Z,99.99
2017-08-27T01:35:48.867Z,99.99
2017-08-27T01:36:58.810Z,99.99
2017-08-27T01:38:08.113Z,99.99
2017-08-27T01:39:18.376Z,99.99
2017-08-27T01:40:28.641Z,99.99
2017-08-27T01:41:38.908Z,99.99
2017-08-27T01:42:48.851Z,99.99
2017-08-27T01:43:59.141Z,99.99
2017-08-27T01:45:09.082Z,99.99
2017-08-27T01:46:19.350Z,99.99
2017-08-27T01:47:29.614Z,99.99
2017-08-27T01:48:39.901Z,99.99
2017-08-27T01:49:50.171Z,99.99
2017-08-27T01:51:00.113Z,99.99
2017-08-27T01:52:10.383Z,99.99
2017-08-27T01:53:20.003Z,99.99
2017-08-27T01:54:29.948Z,99.99
2017-08-27T01:55:40.208Z,99.99
2017-08-27T01:56:50.478Z,99.99
2017-08-27T01:58:00.419Z,99.99
2017-08-27T01:59:10.684Z,99.99
2017-08-27T02:00:20.945Z,99.99
2017-08-27T02:01:30.896Z,99.99
2017-08-27T02:02:45.929Z,99.99
2017-08-27T02:03:55.871Z,99.99
2017-08-27T02:05:05.812Z,99.99
2017-08-27T02:06:16.082Z,99.99
2017-08-27T02:07:25.378Z,99.99
2017-08-27T02:08:35.249Z,99.99
2017-08-27T02:09:45.523Z,99.99
2017-08-27T02:10:55.792Z,99.99
2017-08-27T02:12:05.410Z,99.99
2017-08-27T02:13:15.352Z,99.99
2017-08-27T02:14:28.964Z,99.99
2017-08-27T02:15:38.588Z,99.99
2017-08-27T02:16:48.853Z,99.99
2017-08-27T02:17:59.120Z,99.99
2017-08-27T02:19:09.064Z,99.99
2017-08-27T02:20:19.328Z,99.99
2017-08-27T02:21:29.590Z,99.99
2017-08-27T02:22:39.533Z,99.99
2017-08-27T02:23:49.793Z,99.99
2017-08-27T02:24:59.734Z,99.99
2017-08-27T02:26:10.244Z,99.99
2017-08-27T02:27:20.512Z,99.99
2017-08-27T02:28:30.785Z,99.99
2017-08-27T02:29:41.048Z,99.99
2017-08-27T02:30:51.001Z,99.99
2017-08-27T02:32:01.285Z,99.99
2017-08-27T02:33:11.550Z,99.99
2017-08-27T02:34:21.843Z,99.99
2017-08-27T02:35:31.784Z,99.99
2017-08-27T02:36:42.053Z,99.99
2017-08-27T02:37:52.330Z,99.99
2017-08-27T02:39:01.950Z,99.99
2017-08-27T02:40:12.228Z,99.99
2017-08-27T02:41:22.495Z,99.99
2017-08-27T02:42:32.758Z,99.99
2017-08-27T02:43:43.028Z,99.99
2017-08-27T02:44:52.646Z,99.99
2017-08-27T02:46:02.971Z,99.99
2017-08-27T02:47:13.255Z,99.99
2017-08-27T02:48:23.531Z,99.99
2017-08-27T02:49:33.796Z,99.99
2017-08-27T02:50:43.740Z,99.99
2017-08-27T02:51:54.016Z,99.99
2017-08-27T02:53:03.962Z,99.99
2017-08-27T02:54:13.913Z,99.99
2017-08-27T02:55:23.860Z,99.99
2017-08-27T02:56:34.131Z,99.99
2017-08-27T02:57:44.396Z,99.99
2017-08-27T02:58:54.656Z,99.99
2017-08-27T03:00:04.276Z,99.99
2017-08-27T03:01:14.221Z,99.99
2017-08-27T03:02:24.485Z,99.99
2017-08-27T03:03:34.753Z,99.99
2017-08-27T03:04:45.016Z,99.99
2017-08-27T03:05:54.957Z,99.99
2017-08-27T03:07:04.899Z,99.99
2017-08-27T03:08:14.840Z,99.99
2017-08-27T03:09:24.782Z,99.99
2017-08-27T03:10:35.047Z,99.99
2017-08-27T03:11:45.311Z,99.99
2017-08-27T03:12:55.572Z,99.99
2017-08-27T03:14:05.515Z,99.99
2017-08-27T03:15:15.468Z,99.99
2017-08-27T03:16:25.737Z,99.99
2017-08-27T03:17:35.997Z,99.99
2017-08-27T03:18:45.937Z,99.99
2017-08-27T03:19:56.201Z,99.99
2017-08-27T03:21:06.466Z,99.99
2017-08-27T03:22:16.407Z,99.99
2017-08-27T03:23:26.670Z,99.99
2017-08-27T03:24:36.614Z,99.99
2017-08-27T03:25:46.555Z,99.99
2017-08-27T03:26:56.506Z,99.99
2017-08-27T03:28:06.778Z,99.99
2017-08-27T03:29:16.719Z,99.99
2017-08-27T03:30:26.667Z,99.99
2017-08-27T03:31:36.939Z,99.99
2017-08-27T03:32:46.883Z,99.99
2017-08-27T03:33:57.145Z,99.99
2017-08-27T03:35:07.409Z,99.99
2017-08-27T03:36:17.671Z,99.99
2017-08-27T03:37:27.933Z,99.99
2017-08-27T03:38:37.874Z,99.99
2017-08-27T03:39:47.494Z,99.99
2017-08-27T03:40:57.763Z,99.99
2017-08-27T03:42:07.704Z,99.99
2017-08-27T03:43:17.965Z,99.99
2017-08-27T03:44:28.231Z,99.99
2017-08-27T03:45:38.496Z,99.99
2017-08-27T03:46:48.437Z,99.99
2017-08-27T03:47:58.700Z,99.99
2017-08-27T03:49:08.965Z,99.99
2017-08-27T03:50:19.230Z,99.99
2017-08-27T03:51:29.497Z,99.99
2017-08-27T03:52:39.765Z,99.99
2017-08-27T03:53:49.385Z,99.99
2017-08-27T03:54:59.655Z,99.99
2017-08-27T03:56:09.603Z,99.99
2017-08-27T03:57:19.545Z,99.99
2017-08-27T03:58:29.816Z,99.99
2017-08-27T03:59:40.084Z,99.99
2017-08-27T04:00:50.348Z,99.99
2017-08-27T04:02:00.615Z,99.99
2017-08-27T04:03:10.566Z,99.99
2017-08-27T04:04:20.517Z,99.99
2017-08-27T04:05:30.781Z,99.99
2017-08-27T04:06:40.725Z,99.99
2017-08-27T04:07:50.344Z,99.99
2017-08-27T04:09:00.614Z,99.99
2017-08-27T04:10:10.891Z,99.99
2017-08-27T04:11:21.156Z,99.99
2017-08-27T04:12:31.100Z,99.99
2017-08-27T04:13:41.362Z,99.99
2017-08-27T04:14:51.627Z,99.99
2017-08-27T04:16:01.577Z,99.99
2017-08-27T04:17:11.860Z,99.99
2017-08-27T04:18:22.124Z,99.99
2017-08-27T04:19:32.396Z,99.99
2017-08-27T04:20:42.657Z,99.99
2017-08-27T04:21:52.933Z,99.99
2017-08-27T04:23:03.194Z,99.99
2017-08-27T04:24:13.463Z,99.99
2017-08-27T04:25:23.407Z,99.99
2017-08-27T04:26:33.349Z,99.99
2017-08-27T04:27:43.613Z,99.99
2017-08-27T04:28:53.887Z,99.99
2017-08-27T04:30:03.829Z,99.99
2017-08-27T04:31:13.770Z,99.99
2017-08-27T04:32:24.063Z,99.99
2017-08-27T04:33:34.328Z,99.99
2017-08-27T04:34:44.594Z,99.99
2017-08-27T04:35:54.864Z,99.99
2017-08-27T04:37:05.128Z,99.99
2017-08-27T04:38:15.393Z,99.99
2017-08-27T04:39:25.014Z,99.99
2017-08-27T04:40:34.958Z,99.99
2017-08-27T04:41:44.901Z,99.99
2017-08-27T04:42:55.176Z,99.99
2017-08-27T04:44:05.443Z,99.99
2017-08-27T04:45:15.709Z,99.99
2017-08-27T04:46:25.653Z,99.99
2017-08-27T04:47:35.915Z,99.99
2017-08-27T04:48:45.868Z,99.99
2017-08-27T04:49:55.810Z,99.99
2017-08-27T04:51:05.755Z,99.99
2017-08-27T04:52:16.028Z,99.99
2017-08-27T04:53:25.977Z,99.99
2017-08-27T04:54:35.598Z,99.99
2017-08-27T04:55:45.864Z,99.99
2017-08-27T04:56:55.487Z,99.99
2017-08-27T04:58:05.438Z,99.99
2017-08-27T04:59:15.058Z,99.99
2017-08-27T05:00:25.001Z,99.99
2017-08-27T05:01:35.288Z,99.99
2017-08-27T05:02:45.553Z,99.99
2017-08-27T05:03:55.822Z,99.99
2017-08-27T05:05:05.443Z,99.99
2017-08-27T05:06:15.711Z,99.99
2017-08-27T05:07:25.679Z,99.99
2017-08-27T05:08:35.950Z,99.99
2017-08-27T05:09:46.223Z,99.99
2017-08-27T05:10:56.175Z,99.99
2017-08-27T05:12:06.131Z,99.99
2017-08-27T05:13:16.082Z,99.99
2017-08-27T05:14:26.348Z,99.99
2017-08-27T05:15:36.294Z,99.99
2017-08-27T05:16:46.568Z,99.99
2017-08-27T05:17:56.864Z,99.99
2017-08-27T05:19:06.813Z,99.99
2017-08-27T05:20:16.765Z,99.99
2017-08-27T05:21:27.035Z,99.99
2017-08-27T05:22:37.305Z,99.99
2017-08-27T05:23:47.568Z,99.99
2017-08-27T05:24:57.867Z,99.99
2017-08-27T05:26:08.137Z,99.99
2017-08-27T05:27:18.406Z,99.99
2017-08-27T05:28:28.676Z,99.99
2017-08-27T05:29:38.941Z,99.99
2017-08-27T05:30:49.205Z,99.99
2017-08-27T05:31:59.509Z,99.99
2017-08-27T05:33:09.461Z,99.99
2017-08-27T05:34:19.732Z,99.99
2017-08-27T05:35:30.006Z,99.99
2017-08-27T05:36:39.961Z,99.99
2017-08-27T05:37:49.909Z,99.99
2017-08-27T05:39:00.182Z,99.99
2017-08-27T05:40:10.132Z,99.99
2017-08-27T05:41:20.395Z,99.99
2017-08-27T05:42:30.340Z,99.99
2017-08-27T05:43:40.291Z,99.99
2017-08-27T05:44:50.553Z,99.99
2017-08-27T05:46:00.500Z,99.99
2017-08-27T05:47:10.772Z,99.99
2017-08-27T05:48:21.038Z,99.99
2017-08-27T05:49:31.309Z,99.99
2017-08-27T05:50:41.575Z,99.99
2017-08-27T05:51:51.837Z,99.99
2017-08-27T05:53:02.104Z,99.99
2017-08-27T05:54:12.365Z,99.99
2017-08-27T05:55:22.632Z,99.99
2017-08-27T05:56:32.897Z,99.99
2017-08-27T05:57:42.842Z,99.99
2017-08-27T05:58:53.106Z,99.99
2017-08-27T06:00:03.371Z,99.99
2017-08-27T06:01:13.639Z,99.99
2017-08-27T06:02:23.909Z,99.99
2017-08-27T06:03:33.853Z,99.99
2017-08-27T06:04:43.817Z,99.99
2017-08-27T06:05:53.119Z,99.99
2017-08-27T06:07:03.391Z,99.99
2017-08-27T06:08:13.656Z,99.99
2017-08-27T06:09:23.601Z,99.99
2017-08-27T06:10:33.867Z,99.99
2017-08-27T06:11:44.140Z,99.99
2017-08-27T06:12:54.406Z,99.99
2017-08-27T06:14:04.673Z,99.99
2017-08-27T06:15:14.937Z,99.99
2017-08-27T06:16:25.204Z,99.99
2017-08-27T06:17:35.474Z,99.99
2017-08-27T06:18:45.427Z,99.99
2017-08-27T06:19:54.729Z,99.99
2017-08-27T06:21:04.995Z,99.99
2017-08-27T06:22:14.941Z,99.99
2017-08-27T06:23:24.891Z,99.99
2017-08-27T06:24:35.159Z,99.99
2017-08-27T06:25:45.424Z,99.99
2017-08-27T06:26:55.365Z,99.99
2017-08-27T06:28:04.987Z,99.99
2017-08-27T06:29:15.270Z,99.99
2017-08-27T06:30:25.213Z,99.99
2017-08-27T06:31:35.478Z,99.99
2017-08-27T06:32:45.424Z,99.99
2017-08-27T06:33:55.369Z,99.99
2017-08-27T06:35:05.637Z,99.99
2017-08-27T06:36:15.902Z,99.99
2017-08-27T06:37:25.858Z,99.99
2017-08-27T06:38:35.803Z,99.99
2017-08-27T06:39:46.069Z,99.99
2017-08-27T06:40:56.349Z,99.99
2017-08-27T06:42:05.650Z,99.99
2017-08-27T06:43:15.934Z,99.99
2017-08-27T06:44:25.890Z,99.99
2017-08-27T06:45:36.158Z,99.6
2017-08-27T06:46:45.783Z,99.88
2017-08-27T06:47:56.051Z,99.99
2017-08-27T06:49:06.326Z,99.88
2017-08-27T06:50:16.590Z,99.41
2017-08-27T06:51:26.558Z,99.84
2017-08-27T06:52:36.824Z,99.99
2017-08-27T06:53:46.772Z,99.36
2017-08-27T06:54:57.044Z,98.88
2017-08-27T06:56:07.313Z,98.79
2017-08-27T06:57:17.577Z,99.27
2017-08-27T06:58:27.845Z,98.32
2017-08-27T06:59:38.115Z,98.79
2017-08-27T07:00:48.384Z,98.79
2017-08-27T07:01:58.650Z,98.41
2017-08-27T07:03:08.594Z,98.32
2017-08-27T07:04:18.860Z,98.03
2017-08-27T07:05:28.809Z,98.22
2017-08-27T07:06:39.075Z,97.93
2017-08-27T07:07:49.343Z,97.55
2017-08-27T07:08:59.287Z,96.98
2017-08-27T07:10:08.915Z,96.89
2017-08-27T07:11:19.186Z,97.13
2017-08-27T07:12:29.138Z,96.89
2017-08-27T07:13:39.408Z,97.03
2017-08-27T07:14:49.374Z,96.55
2017-08-27T07:15:59.643Z,96.46
2017-08-27T07:17:09.916Z,96.55
2017-08-27T07:18:19.866Z,96.55
2017-08-27T07:19:29.815Z,96.17
2017-08-27T07:20:39.439Z,96.08
2017-08-27T07:21:49.717Z,95.89
2017-08-27T07:22:59.988Z,95.98
2017-08-27T07:24:09.934Z,96.08
2017-08-27T07:25:20.200Z,95.12
2017-08-27T07:26:30.472Z,95.41
2017-08-27T07:27:40.102Z,95.32
2017-08-27T07:28:50.046Z,94.93
2017-08-27T07:30:00.318Z,94.65
2017-08-27T07:31:10.585Z,94.56
2017-08-27T07:32:20.532Z,94.17
2017-08-27T07:33:30.477Z,94.08
2017-08-27T07:34:40.742Z,93.7
2017-08-27T07:35:50.371Z,93.17
2017-08-27T07:37:00.638Z,93.46
2017-08-27T07:38:10.583Z,93.27
2017-08-27T07:39:20.206Z,92.98
2017-08-27T07:40:30.473Z,93.08
2017-08-27T07:41:40.748Z,92.69
2017-08-27T07:42:51.016Z,92.41
2017-08-27T07:44:01.290Z,92.32
2017-08-27T07:45:10.924Z,91.36
2017-08-27T07:46:20.873Z,90.89
2017-08-27T07:47:31.138Z,90.79
2017-08-27T07:48:41.084Z,91.08
2017-08-27T07:49:51.355Z,91.55
2017-08-27T07:51:01.303Z,91.36
2017-08-27T07:52:11.260Z,90.89
2017-08-27T07:53:21.545Z,91.46
2017-08-27T07:54:31.171Z,91.55
2017-08-27T07:55:41.476Z,91.27
2017-08-27T07:56:51.746Z,90.7
2017-08-27T07:58:01.692Z,90.03
2017-08-27T07:59:11.969Z,89.84
2017-08-27T08:00:21.914Z,89.79
2017-08-27T08:01:32.190Z,88.31
2017-08-27T08:02:41.815Z,87.6
2017-08-27T08:03:51.765Z,88.51
2017-08-27T08:05:02.038Z,88.17
2017-08-27T08:06:12.308Z,87.98
2017-08-27T08:07:21.932Z,86.74
2017-08-27T08:08:32.214Z,86.93
2017-08-27T08:09:42.482Z,86.65
2017-08-27T08:10:52.749Z,86.65
2017-08-27T08:12:02.378Z,86.65
2017-08-27T08:13:12.330Z,86.16
2017-08-27T08:14:21.640Z,86.55
2017-08-27T08:15:31.912Z,87.21
2017-08-27T08:16:42.184Z,86.65
2017-08-27T08:17:52.129Z,87.31
2017-08-27T08:19:02.408Z,86.65
2017-08-27T08:20:12.360Z,87.02
2017-08-27T08:21:22.306Z,86.55
2017-08-27T08:22:32.572Z,86.21
2017-08-27T08:23:42.520Z,86.88
2017-08-27T08:24:52.471Z,86.88
2017-08-27T08:26:02.742Z,85.83
2017-08-27T08:27:13.010Z,86.3
2017-08-27T08:28:22.980Z,85.54
2017-08-27T08:29:32.927Z,85.16
2017-08-27T08:30:43.198Z,85.45
2017-08-27T08:31:53.147Z,84.88
2017-08-27T08:33:03.413Z,84.97
2017-08-27T08:34:13.683Z,84.53
2017-08-27T08:35:23.962Z,84.34
2017-08-27T08:36:33.909Z,83.11
2017-08-27T08:37:43.860Z,83.39
2017-08-27T08:38:53.818Z,83.11
2017-08-27T08:40:03.762Z,83.29
2017-08-27T08:41:14.032Z,83.39
2017-08-27T08:42:24.302Z,83.29
2017-08-27T08:43:34.252Z,83.29
2017-08-27T08:44:44.200Z,82.43
2017-08-27T08:45:53.829Z,82.24
2017-08-27T08:47:03.779Z,82.38
2017-08-27T08:48:14.054Z,82.24
2017-08-27T08:49:24.004Z,82.38
2017-08-27T08:50:33.953Z,81.38
2017-08-27T08:51:43.903Z,81.2
2017-08-27T08:52:53.853Z,81.48
2017-08-27T08:54:04.122Z,81.58
2017-08-27T08:55:14.097Z,83.39
2017-08-27T08:56:24.366Z,83.77
2017-08-27T08:57:34.645Z,83.67
2017-08-27T08:58:44.593Z,83.11
2017-08-27T08:59:54.547Z,82.29
2017-08-27T09:01:04.174Z,81.71
2017-08-27T09:02:14.455Z,81.71
2017-08-27T09:03:24.721Z,82.38
2017-08-27T09:04:34.674Z,81.52
2017-08-27T09:05:44.946Z,81.9
2017-08-27T09:06:54.574Z,80.09
2017-08-27T09:08:04.847Z,79.43
2017-08-27T09:09:15.121Z,80.09
2017-08-27T09:10:25.390Z,80.47
2017-08-27T09:11:35.656Z,80.28
2017-08-27T09:12:45.937Z,80.85
2017-08-27T09:13:55.891Z,82.09
2017-08-27T09:15:06.161Z,81.71
2017-08-27T09:16:16.431Z,81.62
2017-08-27T09:17:26.696Z,81.66
2017-08-27T09:18:36.651Z,80.9
2017-08-27T09:19:46.919Z,80.7
2017-08-27T09:20:56.877Z,80.22
2017-08-27T09:22:06.825Z,79.94
2017-08-27T09:23:16.774Z,80.13
2017-08-27T09:24:27.088Z,80.13
2017-08-27T09:25:36.714Z,79.94
2017-08-27T09:26:46.341Z,79.75
2017-08-27T09:27:56.290Z,80.8
2017-08-27T09:29:06.560Z,80.41
2017-08-27T09:30:16.510Z,79.94
2017-08-27T09:31:26.813Z,79.41
2017-08-27T09:32:37.082Z,79.98
2017-08-27T09:33:46.709Z,79.02
2017-08-27T09:34:56.984Z,79.12
2017-08-27T09:36:07.255Z,79.22
2017-08-27T09:37:17.523Z,78.64
2017-08-27T09:38:27.829Z,78.07
2017-08-27T09:39:37.787Z,78.26
2017-08-27T09:40:48.065Z,79.41
2017-08-27T09:41:58.012Z,77.69
2017-08-27T09:43:07.967Z,76.82
2017-08-27T09:44:17.593Z,77.78
2017-08-27T09:45:26.902Z,77.97
2017-08-27T09:46:37.215Z,78.07
2017-08-27T09:47:46.858Z,77.4
2017-08-27T09:48:57.126Z,76.77
2017-08-27T09:50:07.076Z,76.48
2017-08-27T09:51:17.345Z,77.3
2017-08-27T09:52:27.616Z,77.34
2017-08-27T09:53:37.895Z,77.01
2017-08-27T09:54:47.852Z,77.53
2017-08-27T09:55:57.804Z,77.92
2017-08-27T09:57:08.078Z,78.36
2017-08-27T09:58:18.347Z,77.87
2017-08-27T09:59:28.301Z,77.87
2017-08-27T10:00:38.248Z,76.77
2017-08-27T10:01:48.199Z,76.96
2017-08-27T10:02:58.148Z,76.67
2017-08-27T10:04:08.103Z,76.2
2017-08-27T10:05:18.377Z,75.81
2017-08-27T10:06:28.649Z,75.91
2017-08-27T10:07:38.940Z,76.2
2017-08-27T10:08:49.221Z,75.52
2017-08-27T10:09:58.850Z,76.48
2017-08-27T10:11:08.803Z,76.48
2017-08-27T10:12:19.073Z,76.52
2017-08-27T10:13:29.345Z,76.81
2017-08-27T10:14:39.628Z,76.42
2017-08-27T10:15:49.576Z,76.23
2017-08-27T10:16:59.530Z,75.56
2017-08-27T10:18:09.802Z,75.56
2017-08-27T10:19:19.752Z,75.37
2017-08-27T10:20:30.024Z,75.47
2017-08-27T10:21:40.303Z,74.13
2017-08-27T10:22:50.253Z,73.55
2017-08-27T10:24:00.522Z,74.65
2017-08-27T10:25:10.474Z,75.7
2017-08-27T10:26:20.754Z,75.41
2017-08-27T10:27:30.706Z,75.51
2017-08-27T10:28:40.991Z,75.22
2017-08-27T10:29:51.267Z,74.65
2017-08-27T10:31:01.221Z,74.84
2017-08-27T10:32:10.850Z,74.74
2017-08-27T10:33:20.800Z,74.16
2017-08-27T10:34:30.758Z,74.01
2017-08-27T10:35:41.036Z,74.26
2017-08-27T10:36:50.986Z,73.63
2017-08-27T10:38:01.263Z,73.63
2017-08-27T10:39:11.543Z,73.05
2017-08-27T10:40:21.494Z,72.58
2017-08-27T10:41:31.443Z,71.71
2017-08-27T10:42:41.725Z,72.29
2017-08-27T10:43:51.676Z,72.96
2017-08-27T10:45:01.305Z,72.58
2017-08-27T10:46:11.585Z,72.77
2017-08-27T10:47:21.539Z,71.94
2017-08-27T10:48:31.489Z,72.58
2017-08-27T10:49:41.440Z,72.8
2017-08-27T10:50:51.401Z,71.94
2017-08-27T10:52:01.350Z,71.37
2017-08-27T10:53:11.637Z,71.46
2017-08-27T10:54:21.271Z,71.75
2017-08-27T10:55:31.545Z,71.27
2017-08-27T10:56:41.496Z,71.27
2017-08-27T10:57:51.772Z,70.03
2017-08-27T10:59:02.053Z,69.74
2017-08-27T11:00:12.005Z,69.87
2017-08-27T11:01:22.280Z,69.87
2017-08-27T11:02:32.556Z,70.06
2017-08-27T11:03:42.833Z,69.2
2017-08-27T11:04:52.809Z,68.14
2017-08-27T11:06:03.088Z,69.2
2017-08-27T11:07:12.719Z,68.05
2017-08-27T11:08:22.678Z,66.74
2017-08-27T11:09:32.629Z,67.32
2017-08-27T11:10:42.898Z,66.93
2017-08-27T11:11:53.175Z,67.6
2017-08-27T11:13:03.138Z,67.12
2017-08-27T11:14:13.437Z,66.83
2017-08-27T11:15:23.390Z,65.49
2017-08-27T11:16:33.671Z,66.26
2017-08-27T11:17:43.945Z,66.67
2017-08-27T11:18:54.218Z,66.77
2017-08-27T11:20:04.491Z,65.65
2017-08-27T11:21:14.775Z,65.3
2017-08-27T11:22:25.045Z,64.66
2017-08-27T11:23:35.322Z,64.4
2017-08-27T11:24:45.598Z,62.45
2017-08-27T11:25:55.872Z,60.17
2017-08-27T11:27:05.825Z,60
2017-08-27T11:28:15.782Z,59.27
2017-08-27T11:29:25.738Z,57.17
2017-08-27T11:30:35.692Z,57.01
2017-08-27T11:31:45.974Z,55.62
2017-08-27T11:32:56.254Z,53.97
2017-08-27T11:34:05.888Z,52.77
2017-08-27T11:35:15.856Z,51.73
2017-08-27T11:36:26.132Z,51.56
2017-08-27T11:37:36.414Z,49.75
2017-08-27T11:38:46.372Z,50.24
2017-08-27T11:39:56.342Z,47.26
2017-08-27T11:41:06.628Z,47.67
2017-08-27T11:42:16.916Z,47.11
2017-08-27T11:43:26.876Z,46.07
2017-08-27T11:44:37.158Z,45.31
2017-08-27T11:45:47.438Z,45.61
2017-08-27T11:46:57.719Z,44.65
2017-08-27T11:48:07.683Z,44.29
2017-08-27T11:49:17.324Z,44
2017-08-27T11:50:27.287Z,42.19
2017-08-27T11:51:37.256Z,41.61
2017-08-27T11:52:47.546Z,41.05
2017-08-27T11:53:57.510Z,41.63
2017-08-27T11:55:07.798Z,41.06
2017-08-27T11:56:18.086Z,40.31
2017-08-27T11:57:28.054Z,39.84
2017-08-27T11:58:38.342Z,38.77
2017-08-27T11:59:48.304Z,37.91
2017-08-27T12:00:58.589Z,37.33
2017-08-27T12:02:08.235Z,37.05
2017-08-27T12:03:18.517Z,37.63
2017-08-27T12:04:28.479Z,36.1
2017-08-27T12:05:38.124Z,35.51
2017-08-27T12:06:48.408Z,35.61
2017-08-27T12:07:58.372Z,35.04
2017-08-27T12:09:08.336Z,33.69
2017-08-27T12:10:18.622Z,33.4
2017-08-27T12:11:28.929Z,33.48
2017-08-27T12:12:38.891Z,33.58
2017-08-27T12:13:48.853Z,33.5
2017-08-27T12:14:59.151Z,32.13
2017-08-27T12:16:08.575Z,32.52
2017-08-27T12:17:18.860Z,30.97
2017-08-27T12:18:28.512Z,31.15
2017-08-27T12:19:38.797Z,31.84
2017-08-27T12:20:49.084Z,31.36
2017-08-27T12:21:59.374Z,30.68
2017-08-27T12:23:09.663Z,30.97
2017-08-27T12:24:19.948Z,31.26
2017-08-27T12:25:30.238Z,30.2
2017-08-27T12:26:40.530Z,31.16
2017-08-27T12:27:50.504Z,30.59
2017-08-27T12:29:00.468Z,29.81
2017-08-27T12:30:10.759Z,29.81
2017-08-27T12:31:21.055Z,29.91
2017-08-27T12:32:31.341Z,29.22
2017-08-27T12:33:41.309Z,29.71
2017-08-27T12:34:51.289Z,30
2017-08-27T12:36:01.255Z,29.73
2017-08-27T12:37:10.908Z,29.83
2017-08-27T12:38:20.885Z,29.35
2017-08-27T12:39:30.859Z,29.35
2017-08-27T12:40:40.823Z,28.39
2017-08-27T12:41:50.799Z,28
2017-08-27T12:43:01.092Z,27.21
2017-08-27T12:44:10.763Z,27.31
2017-08-27T12:45:21.047Z,24.57
2017-08-27T12:46:30.709Z,24.57
2017-08-27T12:47:40.999Z,24.86
2017-08-27T12:48:51.287Z,24.76
2017-08-27T12:50:01.584Z,25.34
2017-08-27T12:51:11.230Z,25.83
2017-08-27T12:52:21.518Z,26.81
2017-08-27T12:53:31.814Z,24.47
2017-08-27T12:54:42.103Z,25.16
2017-08-27T12:55:52.390Z,26.14
2017-08-27T12:57:02.684Z,26.44
2017-08-27T12:58:12.662Z,24.58
2017-08-27T12:59:22.956Z,23.42
2017-08-27T13:00:32.937Z,23.12
2017-08-27T13:01:43.226Z,21.66
2017-08-27T13:02:53.192Z,21.64
2017-08-27T13:04:03.481Z,23.11
2017-08-27T13:05:13.449Z,24.58
2017-08-27T13:06:23.739Z,23.02
2017-08-27T13:07:33.706Z,24.1
2017-08-27T13:08:43.673Z,23.23
2017-08-27T13:09:53.964Z,23.53
2017-08-27T13:11:04.257Z,23.33
2017-08-27T13:12:14.228Z,23.24
2017-08-27T13:13:24.193Z,22.85
2017-08-27T13:14:34.413Z,23.65
2017-08-27T13:15:44.063Z,23.94
2017-08-27T13:16:54.358Z,22.58
2017-08-27T13:18:04.652Z,21.8
2017-08-27T13:19:14.632Z,22.38
2017-08-27T13:20:24.284Z,22.38
2017-08-27T13:21:33.929Z,23.07
2017-08-27T13:22:43.905Z,22.58
2017-08-27T13:23:54.228Z,22.39
2017-08-27T13:25:04.518Z,22.59
2017-08-27T13:26:14.807Z,22.99
2017-08-27T13:27:25.098Z,22.31
2017-08-27T13:28:35.064Z,20.35
2017-08-27T13:29:45.353Z,21.03
2017-08-27T13:30:55.325Z,21.8
2017-08-27T13:32:05.616Z,22.3
2017-08-27T13:33:15.584Z,22.2
2017-08-27T13:34:25.887Z,21.52
2017-08-27T13:35:36.175Z,21.22
2017-08-27T13:36:46.462Z,22.78
2017-08-27T13:37:56.442Z,21.33
2017-08-27T13:39:06.760Z,21.33
2017-08-27T13:40:17.053Z,21.04
2017-08-27T13:41:27.024Z,20.45
2017-08-27T13:42:37.314Z,21.12
2017-08-27T13:43:47.285Z,21.53
2017-08-27T13:44:57.254Z,20.94
2017-08-27T13:46:07.222Z,21.14
2017-08-27T13:47:17.519Z,20.35
2017-08-27T13:48:27.490Z,21.52
2017-08-27T13:49:38.089Z,20.54
2017-08-27T13:50:48.388Z,21.33
2017-08-27T13:51:58.678Z,20.93
2017-08-27T13:53:08.972Z,20.44
2017-08-27T13:54:19.263Z,21.41
2017-08-27T13:55:29.552Z,21.03
2017-08-27T13:56:39.522Z,21.33
2017-08-27T13:57:49.494Z,21.23
2017-08-27T13:58:59.462Z,21.14
2017-08-27T14:00:09.431Z,21.73
2017-08-27T14:01:19.745Z,21.73
2017-08-27T14:02:30.040Z,21.26
2017-08-27T14:03:40.331Z,20.27
2017-08-27T14:04:50.623Z,20.37
2017-08-27T14:06:00.592Z,19.96
2017-08-27T14:07:10.560Z,20.26
2017-08-27T14:08:20.206Z,20.45
2017-08-27T14:09:29.853Z,21.33
2017-08-27T14:10:39.823Z,21.22
2017-08-27T14:11:50.116Z,21.12
2017-08-27T14:13:00.410Z,21.22
2017-08-27T14:14:10.701Z,21.22
2017-08-27T14:15:20.671Z,19.96
2017-08-27T14:16:30.962Z,21.33
2017-08-27T14:17:41.252Z,20.93
2017-08-27T14:18:51.219Z,21.23
2017-08-27T14:20:01.507Z,21.73
2017-08-27T14:21:11.806Z,19.96
2017-08-27T14:22:22.104Z,21.33
2017-08-27T14:23:32.078Z,21.54
2017-08-27T14:24:42.369Z,20.95
2017-08-27T14:25:52.664Z,21.05
2017-08-27T14:27:02.636Z,21.34
2017-08-27T14:28:12.927Z,21.75
2017-08-27T14:29:22.899Z,20.76
2017-08-27T14:30:32.869Z,21.05
2017-08-27T14:31:42.834Z,21.06
2017-08-27T14:32:53.135Z,21.46
2017-08-27T14:34:02.782Z,20.29
2017-08-27T14:35:13.079Z,20.39
2017-08-27T14:36:23.377Z,20.68
2017-08-27T14:37:33.671Z,20.28
2017-08-27T14:38:43.316Z,20.28
2017-08-27T14:39:53.317Z,20.47
2017-08-27T14:41:03.617Z,20.38
2017-08-27T14:42:13.908Z,19.98
2017-08-27T14:43:24.197Z,20.47
2017-08-27T14:44:33.522Z,21.06
2017-08-27T14:45:43.493Z,20.76
2017-08-27T14:46:53.461Z,20.48
2017-08-27T14:48:03.755Z,19.49
2017-08-27T14:49:14.058Z,19.98
2017-08-27T14:50:24.346Z,20.38
2017-08-27T14:51:34.322Z,20.39
2017-08-27T14:52:43.971Z,20.49
2017-08-27T14:53:54.272Z,20.18
2017-08-27T14:55:04.246Z,20
2017-08-27T14:56:14.538Z,20.09
2017-08-27T14:57:24.833Z,18.91
2017-08-27T14:58:34.801Z,19.21
2017-08-27T14:59:44.767Z,19.8
2017-08-27T15:00:55.064Z,19.59
2017-08-27T15:02:05.033Z,20.38
2017-08-27T15:03:15.352Z,20.29
2017-08-27T15:04:25.644Z,20
2017-08-27T15:05:35.608Z,19.31